Time;durP1;ratioP1;P1;durP2;ratioP2;P2;SDS_P1;SDS_P2;PMS_P1;PMS_P2;Temp;Humidity;BMP_temperature;BMP_pressure;BME280_temperature;BME280_humidity;BME280_pressure;Samples;Min_cycle;Max_cycle;Signal;HPM_P1;HPM_P2
2023/10/14 00:00:54;;;;;;;9.07;4.93;;;;;;;18.52;92.04;99139.03;4939091;28;20221;-71
2023/10/14 00:03:27;;;;;;;13.10;6.40;;;;;;;18.50;91.65;99136.50;4942303;28;20230;-70
2023/10/14 00:05:55;;;;;;;9.30;5.27;;;;;;;18.50;90.89;99131.13;4941010;28;20217;-71
2023/10/14 00:08:24;;;;;;;7.37;4.63;;;;;;;18.51;90.80;99131.94;4941064;28;20207;-71
2023/10/14 00:10:51;;;;;;;12.63;5.23;;;;;;;18.59;89.08;99135.44;4941646;28;20434;-71
2023/10/14 00:13:18;;;;;;;10.03;4.90;;;;;;;18.64;88.50;99126.78;4939680;28;20247;-71
2023/10/14 00:15:45;;;;;;;7.77;4.60;;;;;;;18.62;87.83;99127.00;4940411;28;20204;-71
2023/10/14 00:18:12;;;;;;;6.97;5.20;;;;;;;18.63;87.95;99125.13;4941712;28;20246;-71
2023/10/14 00:20:39;;;;;;;12.40;5.60;;;;;;;18.68;88.23;99117.31;4945120;28;20678;-71
2023/10/14 00:23:06;;;;;;;8.90;4.80;;;;;;;18.66;87.29;99120.19;4944881;28;20962;-71
2023/10/14 00:25:33;;;;;;;9.50;5.90;;;;;;;18.70;87.53;99112.56;4939566;28;20211;-71
2023/10/14 00:28:06;;;;;;;9.53;5.27;;;;;;;18.73;87.97;99112.19;4940745;28;20210;-71
2023/10/14 00:30:33;;;;;;;10.20;5.43;;;;;;;18.77;88.11;99115.38;4940492;28;20207;-71
2023/10/14 00:32:59;;;;;;;6.53;4.90;;;;;;;18.77;87.78;99109.97;4941384;28;20244;-71
2023/10/14 00:35:27;;;;;;;8.43;5.07;;;;;;;18.80;87.03;99104.22;4938593;28;20211;-71
2023/10/14 00:37:55;;;;;;;6.30;5.13;;;;;;;18.78;87.84;99090.06;4941730;28;20239;-71
2023/10/14 00:40:23;;;;;;;7.97;4.33;;;;;;;18.77;88.33;99075.75;4941071;28;20273;-71
2023/10/14 00:42:51;;;;;;;6.57;5.10;;;;;;;18.76;87.95;99071.38;4942077;28;20234;-71
2023/10/14 00:45:20;;;;;;;8.20;5.07;;;;;;;18.74;87.30;99078.81;4946711;28;21488;-71
2023/10/14 00:47:48;;;;;;;8.27;4.83;;;;;;;18.71;87.70;99073.78;4942284;28;20207;-70
2023/10/14 00:50:28;;;;;;;10.70;5.50;;;;;;;18.70;86.83;99062.16;4944589;28;20211;-70
2023/10/14 00:52:57;;;;;;;7.73;4.70;;;;;;;18.70;85.96;99045.97;4944671;28;20258;-71
2023/10/14 00:55:27;;;;;;;11.50;4.93;;;;;;;18.67;85.54;99069.78;4936756;28;20216;-71
2023/10/14 00:57:55;;;;;;;6.93;5.13;;;;;;;18.64;85.34;99068.28;4941965;28;20212;-71
2023/10/14 01:00:33;;;;;;;8.37;4.80;;;;;;;18.64;85.28;99068.28;4945228;28;20650;-71
2023/10/14 01:03:03;;;;;;;5.17;3.90;;;;;;;18.64;84.30;99062.06;4940678;28;20232;-71
2023/10/14 01:05:30;;;;;;;8.13;4.50;;;;;;;18.61;82.17;99078.63;4948828;28;20219;-71
2023/10/14 01:07:58;;;;;;;6.10;4.40;;;;;;;18.61;82.85;99071.38;4947792;28;20224;-71
2023/10/14 01:10:27;;;;;;;7.37;5.07;;;;;;;18.58;81.33;99077.13;4941090;28;20230;-71
2023/10/14 01:12:55;;;;;;;6.73;4.33;;;;;;;18.59;80.09;99070.75;4950623;28;20313;-71
2023/10/14 01:15:22;;;;;;;7.20;4.40;;;;;;;18.61;78.82;99054.38;4953868;28;20216;-72
2023/10/14 01:17:49;;;;;;;9.80;5.23;;;;;;;18.64;78.76;99052.13;4942365;28;20220;-71
2023/10/14 01:20:35;;;;;;;6.73;4.60;;;;;;;18.65;79.24;99063.75;4959524;28;20212;-71
2023/10/14 01:23:07;;;;;;;6.43;5.03;;;;;;;18.69;78.15;99054.25;4941199;28;20301;-71
2023/10/14 01:25:34;;;;;;;6.50;5.00;;;;;;;18.73;77.30;99040.22;4957306;28;20211;-71
2023/10/14 01:28:11;;;;;;;8.00;5.57;;;;;;;18.78;77.12;99039.66;4946207;28;20212;-71
2023/10/14 01:30:50;;;;;;;10.53;6.30;;;;;;;18.84;76.99;99022.69;4946208;28;20208;-71
2023/10/14 01:33:21;;;;;;;6.50;5.70;;;;;;;18.84;77.45;99033.50;4943005;28;20227;-71
2023/10/14 01:35:51;;;;;;;8.30;5.53;;;;;;;18.89;77.06;99043.72;4947366;28;20210;-71
2023/10/14 01:38:19;;;;;;;8.50;5.20;;;;;;;18.89;76.87;99033.75;4943782;28;20223;-71
2023/10/14 01:40:49;;;;;;;6.97;4.97;;;;;;;18.92;76.72;99017.22;4941895;28;20208;-71
2023/10/14 01:43:15;;;;;;;12.20;5.97;;;;;;;18.92;76.59;99021.75;4941282;28;20676;-71
2023/10/14 01:45:50;;;;;;;9.07;5.40;;;;;;;18.97;76.27;99019.34;4946617;28;20206;-71
2023/10/14 01:48:21;;;;;;;9.20;5.83;;;;;;;19.02;76.51;99006.09;4942460;28;20208;-71
2023/10/14 01:50:52;;;;;;;6.93;5.50;;;;;;;19.06;75.99;98992.03;4951409;28;20591;-71
2023/10/14 01:53:23;;;;;;;8.83;5.70;;;;;;;19.07;75.47;99009.06;4945040;28;20237;-71
2023/10/14 01:55:53;;;;;;;8.27;5.67;;;;;;;19.06;75.87;99008.22;4947349;28;20679;-71
2023/10/14 01:58:29;;;;;;;9.10;5.03;;;;;;;19.04;76.78;99025.63;4949873;28;20266;-71
2023/10/14 02:00:58;;;;;;;8.20;5.30;;;;;;;19.04;78.27;99015.66;4942974;28;20211;-71
2023/10/14 02:03:26;;;;;;;9.07;5.80;;;;;;;19.11;78.54;99017.63;4937038;28;20322;-71
2023/10/14 02:05:53;;;;;;;11.43;5.13;;;;;;;19.07;78.58;99019.84;4944278;28;20212;-71
2023/10/14 02:08:22;;;;;;;8.00;5.17;;;;;;;18.99;81.39;99038.84;4947684;28;20223;-70
2023/10/14 02:10:50;;;;;;;10.20;5.23;;;;;;;18.88;83.00;99026.69;4943556;28;20525;-70
2023/10/14 02:13:18;;;;;;;7.30;5.37;;;;;;;18.80;84.15;99039.47;4945012;28;20228;-70
2023/10/14 02:15:46;;;;;;;10.33;4.90;;;;;;;18.71;85.55;99042.25;4940121;28;20219;-70
2023/10/14 02:18:15;;;;;;;9.27;5.30;;;;;;;18.63;86.68;99053.13;4942754;28;20683;-70
2023/10/14 02:20:56;;;;;;;8.87;5.07;;;;;;;18.57;86.31;99026.91;4942384;28;20662;-70
2023/10/14 02:23:26;;;;;;;6.47;5.10;;;;;;;18.47;86.34;99047.91;4942296;28;20222;-70
2023/10/14 02:25:56;;;;;;;6.60;4.53;;;;;;;18.42;87.60;99036.88;4942083;28;20286;-70
2023/10/14 02:28:22;;;;;;;8.23;5.10;;;;;;;18.32;88.32;99174.59;4944362;28;20252;-69
2023/10/14 02:30:51;;;;;;;5.93;2.43;;;;;;;18.14;88.06;99135.50;4940026;28;20219;-69
2023/10/14 02:33:17;;;;;;;5.87;1.87;;;;;;;17.87;88.68;99158.47;4945241;28;20693;-69
2023/10/14 02:35:44;;;;;;;3.57;1.07;;;;;;;17.68;90.27;99189.41;4943038;28;20218;-69
2023/10/14 02:38:10;;;;;;;1.10;0.40;;;;;;;17.37;91.03;99185.88;4946891;28;20215;-69
2023/10/14 02:40:38;;;;;;;2.40;0.50;;;;;;;16.98;92.67;99200.16;4942738;28;20212;-68
2023/10/14 02:43:06;;;;;;;0.60;0.53;;;;;;;16.75;95.14;99212.63;4977311;22;20299;-80
2023/10/14 02:45:38;;;;;;;0.60;0.40;;;;;;;16.64;96.08;99221.91;4995231;28;20207;-79
2023/10/14 02:48:05;;;;;;;0.80;0.40;;;;;;;16.47;97.34;99210.31;4984963;28;20231;-79
2023/10/14 02:50:32;;;;;;;1.13;0.50;;;;;;;16.27;98.11;99227.78;4975735;28;20231;-80
2023/10/14 02:53:06;;;;;;;0.57;0.40;;;;;;;16.15;98.79;99215.69;4969838;28;20230;-79
2023/10/14 02:55:50;;;;;;;1.20;0.30;;;;;;;16.03;99.10;99228.59;4969507;28;20233;-79
2023/10/14 02:58:20;;;;;;;1.17;0.30;;;;;;;15.90;99.88;99239.00;4972543;28;20209;-80
2023/10/14 03:00:49;;;;;;;0.70;0.40;;;;;;;15.77;100.00;99244.81;4966776;28;20313;-80
2023/10/14 03:03:18;;;;;;;0.70;0.40;;;;;;;15.70;100.00;99245.66;4980876;28;20206;-79
2023/10/14 03:05:51;;;;;;;3.13;0.60;;;;;;;15.64;100.00;99233.72;4977233;28;20206;-80
2023/10/14 03:08:18;;;;;;;1.23;0.43;;;;;;;15.61;100.00;99234.03;4980814;28;20207;-79
2023/10/14 03:10:46;;;;;;;0.70;0.30;;;;;;;15.54;100.00;99251.78;4974302;28;20214;-79
2023/10/14 03:13:13;;;;;;;1.00;0.57;;;;;;;15.39;98.96;99266.84;4982398;28;20697;-79
2023/10/14 03:15:44;;;;;;;1.60;0.40;;;;;;;15.27;98.65;99296.59;4973550;28;20205;-80
2023/10/14 03:18:16;;;;;;;0.97;0.40;;;;;;;15.11;97.86;99322.50;4975252;28;20212;-80
2023/10/14 03:20:45;;;;;;;1.03;0.40;;;;;;;15.01;98.54;99327.13;4974103;28;20584;-80
2023/10/14 03:23:18;;;;;;;0.80;0.40;;;;;;;14.90;98.81;99334.41;4968289;28;20728;-79
2023/10/14 03:25:45;;;;;;;1.37;0.50;;;;;;;14.74;99.07;99360.25;4969942;28;20799;-79
2023/10/14 03:28:14;;;;;;;0.77;0.40;;;;;;;14.62;99.36;99374.91;4975742;28;20212;-79
2023/10/14 03:30:47;;;;;;;0.80;0.40;;;;;;;14.52;99.70;99380.31;4974991;28;20233;-80
2023/10/14 03:33:19;;;;;;;1.37;0.50;;;;;;;14.47;100.00;99379.94;4974539;28;20217;-80
2023/10/14 03:35:56;;;;;;;0.87;0.57;;;;;;;14.39;100.00;99390.53;4978596;28;20643;-80
2023/10/14 03:38:33;;;;;;;0.60;0.40;;;;;;;14.30;100.00;99403.03;4973755;28;20295;-79
2023/10/14 03:41:10;;;;;;;0.57;0.40;;;;;;;14.24;100.00;99409.81;4965070;28;20210;-79
2023/10/14 03:43:44;;;;;;;3.03;0.63;;;;;;;14.21;100.00;99428.00;4973719;28;20221;-79
2023/10/14 03:46:12;;;;;;;1.57;0.50;;;;;;;14.12;100.00;99420.88;4977506;28;20287;-80
2023/10/14 03:48:47;;;;;;;2.17;0.80;;;;;;;14.06;100.00;99422.31;4966678;28;20254;-79
2023/10/14 03:51:22;;;;;;;1.50;0.47;;;;;;;13.99;100.00;99420.38;4961782;28;20242;-79
2023/10/14 03:53:48;;;;;;;0.93;0.50;;;;;;;13.95;100.00;99417.19;4986562;28;20247;-80
2023/10/14 03:56:15;;;;;;;0.40;0.30;;;;;;;13.90;100.00;99443.53;4968930;28;20216;-79
2023/10/14 03:58:45;;;;;;;0.80;0.50;;;;;;;13.87;100.00;99439.31;4972659;28;20235;-79
2023/10/14 04:01:14;;;;;;;1.20;0.50;;;;;;;13.84;100.00;99439.59;4966419;28;20201;-80
2023/10/14 04:03:51;;;;;;;1.73;0.50;;;;;;;13.80;100.00;99448.91;4975558;28;20664;-80
2023/10/14 04:06:19;;;;;;;0.77;0.40;;;;;;;13.78;100.00;99429.50;4973297;28;20212;-80
2023/10/14 04:08:47;;;;;;;1.57;0.40;;;;;;;13.74;100.00;99446.84;4967525;28;20716;-80
2023/10/14 04:11:16;;;;;;;2.10;0.40;;;;;;;13.72;100.00;99454.16;4970041;28;20212;-81
2023/10/14 04:13:51;;;;;;;3.23;0.63;;;;;;;13.72;100.00;99450.66;4981065;28;20229;-80
2023/10/14 04:16:28;;;;;;;1.23;0.40;;;;;;;13.64;100.00;99451.38;4963808;28;20205;-80
2023/10/14 04:19:04;;;;;;;0.90;0.43;;;;;;;13.59;100.00;99461.69;4974245;28;20327;-80
2023/10/14 04:21:37;;;;;;;0.90;0.20;;;;;;;13.58;100.00;99460.00;4978774;28;20291;-80
2023/10/14 04:24:20;;;;;;;0.50;0.30;;;;;;;13.61;100.00;99485.63;4969693;28;20205;-81
2023/10/14 04:26:48;;;;;;;0.60;0.30;;;;;;;13.56;100.00;99478.00;4973505;28;20255;-79
2023/10/14 04:29:34;;;;;;;2.57;0.30;;;;;;;13.52;100.00;99485.47;4969098;28;20261;-80
2023/10/14 04:32:13;;;;;;;1.13;0.60;;;;;;;13.49;100.00;99487.59;4967826;28;20698;-80
2023/10/14 04:34:42;;;;;;;0.70;0.20;;;;;;;13.48;100.00;99497.44;4968720;28;20212;-80
2023/10/14 04:37:08;;;;;;;0.20;0.20;;;;;;;13.46;100.00;99506.59;4974142;28;20254;-80
2023/10/14 04:39:42;;;;;;;1.80;0.40;;;;;;;13.44;100.00;99527.28;4966596;28;20229;-80
2023/10/14 04:42:35;;;;;;;3.60;0.60;;;;;;;13.39;100.00;99549.13;4971980;28;20212;-79
2023/10/14 04:45:04;;;;;;;4.03;0.93;;;;;;;13.10;100.00;99541.06;4967590;28;20657;-79
2023/10/14 04:47:47;;;;;;;6.47;1.27;;;;;;;12.89;97.25;99537.69;4970032;28;20601;-79
2023/10/14 04:50:14;;;;;;;5.63;1.43;;;;;;;12.77;97.25;99533.44;4980316;28;20235;-80
2023/10/14 04:52:42;;;;;;;5.93;1.30;;;;;;;12.68;96.40;99542.28;4973659;28;20571;-80
2023/10/14 04:55:25;;;;;;;4.73;1.30;;;;;;;12.60;97.15;99542.97;4975803;28;20292;-79
2023/10/14 04:58:06;;;;;;;7.03;1.40;;;;;;;12.50;96.56;99548.28;4992615;28;20631;-80
2023/10/14 05:00:38;;;;;;;4.20;1.27;;;;;;;12.49;96.51;99561.78;4985158;28;20232;-79
2023/10/14 05:03:06;;;;;;;7.27;1.40;;;;;;;12.47;96.05;99567.25;4973894;28;20202;-79
2023/10/14 05:05:33;;;;;;;8.40;1.50;;;;;;;12.44;96.23;99566.69;4968947;28;20689;-80
2023/10/14 05:08:03;;;;;;;5.07;1.60;;;;;;;12.43;95.79;99579.19;4973596;28;20234;-80
2023/10/14 05:10:30;;;;;;;7.33;1.87;;;;;;;12.38;95.88;99584.06;4970712;28;20238;-80
2023/10/14 05:12:57;;;;;;;6.87;1.50;;;;;;;12.35;95.61;99584.38;4974876;28;20223;-80
2023/10/14 05:15:27;;;;;;;7.00;1.10;;;;;;;12.38;95.34;99589.41;4969692;28;20204;-80
2023/10/14 05:18:00;;;;;;;4.77;1.40;;;;;;;12.34;95.09;99588.00;4970067;28;20237;-79
2023/10/14 05:20:29;;;;;;;7.73;1.60;;;;;;;12.34;94.86;99606.69;4966080;28;20236;-79
2023/10/14 05:22:56;;;;;;;6.93;1.77;;;;;;;12.35;94.71;99626.25;4968935;28;20627;-79
2023/10/14 05:25:27;;;;;;;2.80;1.00;;;;;;;12.32;94.06;99637.19;4978245;28;20247;-79
2023/10/14 05:27:58;;;;;;;4.13;1.00;;;;;;;12.29;93.51;99637.44;4967947;28;20213;-79
2023/10/14 05:30:32;;;;;;;4.70;1.30;;;;;;;12.26;93.38;99643.03;4969116;28;20222;-79
2023/10/14 05:33:06;;;;;;;4.53;1.33;;;;;;;12.25;92.97;99655.53;4975851;28;20211;-79
2023/10/14 05:35:38;;;;;;;5.87;1.90;;;;;;;12.21;92.54;99670.13;4978757;28;20199;-80
2023/10/14 05:38:09;;;;;;;7.83;1.40;;;;;;;12.16;92.40;99673.22;4970022;28;20261;-80
2023/10/14 05:40:37;;;;;;;5.03;1.57;;;;;;;12.16;92.59;99680.38;4972195;28;20233;-80
2023/10/14 05:43:06;;;;;;;6.93;1.57;;;;;;;12.16;92.62;99693.72;4975221;28;20223;-80
2023/10/14 05:45:34;;;;;;;4.70;1.20;;;;;;;12.11;92.59;99690.59;4971559;28;20214;-79
2023/10/14 05:48:00;;;;;;;3.50;1.17;;;;;;;12.10;92.32;99702.22;4968981;28;20572;-79
2023/10/14 05:50:27;;;;;;;5.47;1.00;;;;;;;12.09;91.69;99708.53;4968489;28;20249;-80
2023/10/14 05:52:55;;;;;;;8.47;1.70;;;;;;;12.07;91.63;99716.69;4975071;28;20212;-80
2023/10/14 05:55:22;;;;;;;6.60;1.30;;;;;;;12.03;90.99;99730.41;4971376;28;20237;-80
2023/10/14 05:57:49;;;;;;;8.30;1.40;;;;;;;12.00;90.73;99736.84;4975680;28;20204;-79
2023/10/14 06:00:23;;;;;;;9.27;1.40;;;;;;;11.98;90.84;99744.16;4979690;28;20319;-80
2023/10/14 06:02:51;;;;;;;4.97;1.63;;;;;;;11.98;90.68;99753.97;4977846;28;20262;-80
2023/10/14 06:05:18;;;;;;;5.23;1.20;;;;;;;11.97;90.87;99760.28;4972826;28;20608;-79
2023/10/14 06:07:46;;;;;;;5.63;1.00;;;;;;;11.93;90.63;99766.84;4978198;28;20714;-80
2023/10/14 06:10:20;;;;;;;5.47;1.60;;;;;;;11.94;90.79;99768.53;4971514;28;20228;-80
2023/10/14 06:12:51;;;;;;;5.80;1.17;;;;;;;11.89;90.81;99786.75;4965311;28;20202;-80
2023/10/14 06:15:19;;;;;;;5.20;1.57;;;;;;;11.88;90.94;99793.06;4990019;28;20275;-80
2023/10/14 06:17:46;;;;;;;5.20;1.40;;;;;;;11.87;91.26;99800.22;4974709;28;20238;-80
2023/10/14 06:20:15;;;;;;;4.23;1.00;;;;;;;11.87;91.43;99815.38;4976903;28;20246;-80
2023/10/14 06:22:42;;;;;;;7.60;1.17;;;;;;;11.86;91.62;99819.84;4970688;28;20208;-80
2023/10/14 06:25:14;;;;;;;5.33;1.20;;;;;;;11.84;91.55;99829.81;4977487;28;20222;-79
2023/10/14 06:27:46;;;;;;;4.93;1.13;;;;;;;11.79;91.21;99838.19;4979904;28;20625;-79
2023/10/14 06:30:22;;;;;;;5.10;1.07;;;;;;;11.82;91.27;99845.94;4972831;28;20234;-79
2023/10/14 06:32:52;;;;;;;4.30;1.60;;;;;;;11.80;91.07;99842.56;4976713;28;20237;-80
2023/10/14 06:35:19;;;;;;;6.40;1.20;;;;;;;11.81;91.11;99854.09;4974954;28;20593;-79
2023/10/14 06:37:46;;;;;;;5.30;1.80;;;;;;;11.80;90.91;99855.06;4970331;28;20261;-79
2023/10/14 06:40:14;;;;;;;11.47;1.50;;;;;;;11.79;90.31;99866.69;4975156;28;20253;-79
2023/10/14 06:42:44;;;;;;;6.83;1.07;;;;;;;11.82;90.03;99879.78;4963530;28;20202;-80
2023/10/14 06:45:13;;;;;;;3.80;0.90;;;;;;;11.81;90.13;99880.75;4971049;28;20248;-80
2023/10/14 06:47:45;;;;;;;5.33;1.13;;;;;;;11.83;90.76;99884.97;4969395;28;20207;-79
2023/10/14 06:50:12;;;;;;;6.77;2.20;;;;;;;11.89;91.38;99888.97;4981879;28;20713;-80
2023/10/14 06:52:38;;;;;;;8.93;1.90;;;;;;;11.88;91.81;99892.63;4980338;28;20713;-80
2023/10/14 06:55:07;;;;;;;5.33;1.20;;;;;;;11.90;92.47;99897.84;4971911;28;20246;-80
2023/10/14 06:57:34;;;;;;;7.67;2.13;;;;;;;11.93;92.98;99914.44;4969284;28;20208;-80
2023/10/14 07:00:07;;;;;;;2.37;1.10;;;;;;;11.94;93.20;99904.63;4979184;28;20314;-80
2023/10/14 07:02:35;;;;;;;5.80;1.60;;;;;;;11.96;93.29;99921.38;4989659;28;20231;-80
2023/10/14 07:05:02;;;;;;;4.53;1.47;;;;;;;11.99;92.99;99927.31;4972383;28;20214;-81
2023/10/14 07:07:29;;;;;;;7.13;1.20;;;;;;;12.00;92.85;99934.31;4968334;28;20220;-80
2023/10/14 07:09:56;;;;;;;6.07;1.23;;;;;;;12.00;92.45;99944.19;4967097;28;20913;-80
2023/10/14 07:12:22;;;;;;;5.13;1.27;;;;;;;12.02;91.95;99944.88;4974910;28;20221;-80
2023/10/14 07:14:49;;;;;;;4.40;1.37;;;;;;;12.04;91.29;99941.09;4977312;28;20232;-80
2023/10/14 07:17:22;;;;;;;9.47;1.90;;;;;;;12.06;91.34;99954.34;4977622;28;20706;-79
2023/10/14 07:19:49;;;;;;;3.63;1.40;;;;;;;12.07;90.79;99948.88;4983089;28;20235;-80
2023/10/14 07:22:20;;;;;;;5.53;1.03;;;;;;;12.11;90.15;99962.81;4982057;28;20252;-80
2023/10/14 07:24:47;;;;;;;6.97;1.37;;;;;;;12.14;89.84;99962.59;4968561;28;20239;-80
2023/10/14 07:27:17;;;;;;;5.93;1.30;;;;;;;12.15;89.68;99964.28;4977187;28;20205;-80
2023/10/14 07:29:45;;;;;;;7.00;2.13;;;;;;;12.19;89.79;99965.72;4979347;28;20235;-79
2023/10/14 07:32:15;;;;;;;7.07;1.50;;;;;;;12.23;89.06;99969.84;4970560;28;20561;-79
2023/10/14 07:34:42;;;;;;;5.70;1.47;;;;;;;12.24;89.07;99973.34;4971026;28;20837;-80
2023/10/14 07:37:09;;;;;;;4.93;1.50;;;;;;;12.29;88.18;99980.03;4976211;28;20201;-80
2023/10/14 07:39:36;;;;;;;4.27;1.33;;;;;;;12.34;88.11;99972.50;4974412;28;20292;-79
2023/10/14 07:42:09;;;;;;;4.80;1.33;;;;;;;12.38;87.53;99986.44;4961772;28;20208;-80
2023/10/14 07:44:35;;;;;;;6.83;1.57;;;;;;;12.43;87.97;99994.91;4968156;28;20215;-80
2023/10/14 07:47:05;;;;;;;10.60;1.47;;;;;;;12.46;86.84;100000.03;4970894;28;20695;-80
2023/10/14 07:49:33;;;;;;;8.07;2.03;;;;;;;12.49;86.69;99999.78;4967703;28;20219;-80
2023/10/14 07:52:01;;;;;;;6.97;1.63;;;;;;;12.55;86.71;100004.59;4968183;28;20649;-80
2023/10/14 07:54:29;;;;;;;6.23;2.03;;;;;;;12.59;86.43;100014.06;4976269;28;20223;-80
2023/10/14 07:56:56;;;;;;;7.30;1.30;;;;;;;12.67;87.05;100021.47;4965244;28;20234;-79
2023/10/14 07:59:22;;;;;;;13.77;2.37;;;;;;;12.72;86.86;100016.59;4968354;28;20223;-80
2023/10/14 08:01:48;;;;;;;7.23;1.20;;;;;;;12.76;85.65;100037.56;4971212;28;20229;-80
2023/10/14 08:04:15;;;;;;;4.70;1.87;;;;;;;12.85;85.41;100033.31;4970711;28;20213;-80
2023/10/14 08:06:43;;;;;;;5.67;1.40;;;;;;;12.92;84.87;100034.47;4969825;28;20212;-80
2023/10/14 08:09:24;;;;;;;5.80;1.30;;;;;;;12.99;83.91;100041.03;4973448;28;20850;-80
2023/10/14 08:11:51;;;;;;;8.97;1.90;;;;;;;13.07;83.59;100048.44;4972871;28;20277;-79
2023/10/14 08:14:18;;;;;;;10.03;1.83;;;;;;;13.12;83.68;100047.03;4985527;28;20630;-80
2023/10/14 08:16:45;;;;;;;6.73;1.10;;;;;;;13.24;82.89;100044.38;4974022;28;20652;-80
2023/10/14 08:19:12;;;;;;;6.37;1.07;;;;;;;13.29;81.21;100052.84;4975779;28;20228;-80
2023/10/14 08:21:38;;;;;;;8.03;1.57;;;;;;;13.33;81.19;100060.47;4972713;28;20223;-80
2023/10/14 08:24:06;;;;;;;5.80;1.77;;;;;;;13.36;78.74;100059.38;4983703;28;20220;-79
2023/10/14 08:26:35;;;;;;;5.50;1.60;;;;;;;13.35;78.08;100068.38;4974817;28;20214;-79
2023/10/14 08:29:01;;;;;;;8.03;1.53;;;;;;;13.38;78.89;100068.13;4972501;28;20232;-79
2023/10/14 08:31:32;;;;;;;5.80;1.20;;;;;;;13.36;79.11;100070.06;4983366;28;20300;-80
2023/10/14 08:33:59;;;;;;;8.77;1.40;;;;;;;13.42;79.10;100081.13;4972582;28;20214;-79
2023/10/14 08:36:26;;;;;;;6.97;1.50;;;;;;;13.43;79.17;100074.78;4973354;28;20687;-79
2023/10/14 08:38:53;;;;;;;8.07;2.20;;;;;;;13.42;78.18;100086.47;4967586;28;20224;-80
2023/10/14 08:41:19;;;;;;;8.93;1.63;;;;;;;13.39;78.63;100088.56;4972608;28;20219;-80
2023/10/14 08:43:50;;;;;;;6.03;1.47;;;;;;;13.45;79.02;100096.03;4972452;28;20223;-81
2023/10/14 08:46:18;;;;;;;7.53;1.73;;;;;;;13.55;79.63;100088.94;4969332;28;20200;-81
2023/10/14 08:48:50;;;;;;;5.53;1.93;;;;;;;13.63;79.02;100099.00;4967417;28;20592;-80
2023/10/14 08:51:18;;;;;;;5.77;1.67;;;;;;;13.72;79.16;100098.22;4974793;28;20236;-81
2023/10/14 08:53:53;;;;;;;6.27;1.93;;;;;;;13.84;78.97;100092.66;4970726;28;20207;-80
2023/10/14 08:56:20;;;;;;;4.80;1.23;;;;;;;13.95;78.00;100097.13;4972500;28;20318;-80
2023/10/14 08:58:50;;;;;;;6.40;1.43;;;;;;;13.97;76.55;100110.38;4972804;28;20236;-80
2023/10/14 09:01:19;;;;;;;6.87;1.33;;;;;;;13.98;74.90;100098.66;4991142;28;20556;-79
2023/10/14 09:03:49;;;;;;;8.10;1.60;;;;;;;13.94;73.56;100106.13;4969614;28;20233;-81
2023/10/14 09:06:16;;;;;;;6.13;1.70;;;;;;;13.94;73.50;100099.91;4979802;28;20216;-80
2023/10/14 09:08:44;;;;;;;13.43;1.93;;;;;;;14.01;73.11;100114.47;4969341;28;20216;-80
2023/10/14 09:11:26;;;;;;;12.67;2.20;;;;;;;14.05;72.78;100102.50;4974238;28;20244;-80
2023/10/14 09:14:03;;;;;;;8.27;1.73;;;;;;;14.07;71.65;100119.28;4970915;28;20672;-80
2023/10/14 09:16:32;;;;;;;5.33;1.60;;;;;;;14.10;70.89;100111.00;4973033;28;20212;-79
2023/10/14 09:19:00;;;;;;;6.60;1.80;;;;;;;14.15;71.58;100114.13;4978310;28;20228;-80
2023/10/14 09:21:27;;;;;;;11.10;1.60;;;;;;;14.20;72.13;100115.41;4975166;28;20292;-80
2023/10/14 09:23:53;;;;;;;9.43;2.27;;;;;;;14.28;70.89;100113.91;4969526;28;20214;-80
2023/10/14 09:26:21;;;;;;;5.43;1.33;;;;;;;14.34;70.99;100116.03;4988143;28;20214;-79
2023/10/14 09:28:48;;;;;;;7.97;1.47;;;;;;;14.39;70.45;100122.69;4973411;28;20225;-80
2023/10/14 09:31:16;;;;;;;8.23;1.60;;;;;;;14.42;68.84;100122.47;4981802;28;20205;-80
2023/10/14 09:33:43;;;;;;;7.40;1.70;;;;;;;14.43;67.70;100126.84;4975685;28;20220;-79
2023/10/14 09:36:14;;;;;;;5.47;1.30;;;;;;;14.46;67.10;100123.91;4972040;28;20237;-80
2023/10/14 09:38:42;;;;;;;7.43;1.33;;;;;;;14.55;68.08;100127.59;4980424;28;20897;-80
2023/10/14 09:41:10;;;;;;;7.33;1.40;;;;;;;14.68;66.38;100130.06;4974031;28;20224;-81
2023/10/14 09:43:39;;;;;;;6.00;1.97;;;;;;;14.74;64.76;100137.53;4969002;28;21461;-80
2023/10/14 09:46:08;;;;;;;7.60;1.27;;;;;;;14.73;64.82;100119.75;4995989;28;20209;-80
2023/10/14 09:48:36;;;;;;;9.73;1.83;;;;;;;14.82;65.26;100129.66;4979089;28;20216;-80
2023/10/14 09:51:04;;;;;;;5.80;1.20;;;;;;;14.90;65.14;100135.19;4989710;28;20211;-80
2023/10/14 09:53:32;;;;;;;6.53;1.57;;;;;;;14.92;63.38;100133.22;4983938;28;20201;-80
2023/10/14 09:56:04;;;;;;;5.73;1.40;;;;;;;14.94;64.08;100129.41;4975448;28;20284;-80
2023/10/14 09:58:34;;;;;;;8.17;1.97;;;;;;;15.06;64.44;100134.66;4990736;28;20231;-80
2023/10/14 10:01:01;;;;;;;6.83;1.50;;;;;;;15.07;63.43;100137.19;4991380;28;20212;-80
2023/10/14 10:03:32;;;;;;;12.27;2.17;;;;;;;15.12;63.51;100137.63;5008090;28;20202;-79
2023/10/14 10:06:14;;;;;;;6.07;1.90;;;;;;;15.19;62.80;100146.84;4989235;28;20208;-81
2023/10/14 10:08:55;;;;;;;10.97;2.03;;;;;;;15.28;62.50;100155.88;4975971;28;20216;-79
2023/10/14 10:11:24;;;;;;;12.27;1.50;;;;;;;15.36;61.93;100155.19;4985441;28;20641;-80
2023/10/14 10:13:52;;;;;;;6.37;1.00;;;;;;;15.34;60.76;100166.06;4984132;28;21510;-81
2023/10/14 10:16:21;;;;;;;9.17;1.47;;;;;;;15.25;59.89;100161.50;4975613;28;20593;-80
2023/10/14 10:18:52;;;;;;;6.80;1.43;;;;;;;15.29;60.67;100163.78;4973568;28;20267;-80
2023/10/14 10:21:20;;;;;;;6.80;1.67;;;;;;;15.39;61.54;100168.31;4980334;28;20214;-80
2023/10/14 10:23:50;;;;;;;11.87;1.50;;;;;;;15.48;61.11;100164.78;4966180;28;20212;-80
2023/10/14 10:26:17;;;;;;;6.20;1.50;;;;;;;15.56;60.96;100171.19;4964802;28;20233;-80
2023/10/14 10:28:46;;;;;;;6.13;1.27;;;;;;;15.62;60.16;100180.50;4980916;28;20693;-80
2023/10/14 10:31:21;;;;;;;6.07;1.33;;;;;;;15.70;59.42;100174.44;4979546;28;20212;-80
2023/10/14 10:33:57;;;;;;;5.87;1.40;;;;;;;15.75;58.87;100180.25;4982763;28;20289;-80
2023/10/14 10:36:27;;;;;;;7.00;1.67;;;;;;;15.74;57.82;100181.22;4978952;28;20230;-81
2023/10/14 10:38:55;;;;;;;7.57;1.30;;;;;;;15.74;58.63;100191.97;4971566;28;20232;-80
2023/10/14 10:41:27;;;;;;;7.20;1.60;;;;;;;15.79;57.81;100192.38;4974631;28;20203;-80
2023/10/14 10:44:00;;;;;;;6.40;1.93;;;;;;;15.83;57.28;100183.91;4975134;28;20217;-79
2023/10/14 10:46:31;;;;;;;7.53;1.73;;;;;;;15.87;56.14;100187.16;4983572;28;20204;-79
2023/10/14 10:48:59;;;;;;;5.73;1.13;;;;;;;15.82;55.65;100186.72;4983899;28;20281;-78
2023/10/14 10:51:31;;;;;;;4.37;1.50;;;;;;;15.82;55.47;100184.88;4990285;28;20208;-80
2023/10/14 10:54:01;;;;;;;7.37;1.53;;;;;;;15.88;56.14;100195.06;4971836;28;20202;-80
2023/10/14 10:56:33;;;;;;;5.90;1.20;;;;;;;15.89;55.77;100195.91;4984649;28;20677;-81
2023/10/14 10:59:01;;;;;;;6.70;1.93;;;;;;;15.87;55.11;100195.22;4999158;28;20258;-81
2023/10/14 11:01:31;;;;;;;5.87;1.40;;;;;;;15.87;56.23;100205.94;4987799;28;20326;-81
2023/10/14 11:03:58;;;;;;;5.10;1.30;;;;;;;15.82;55.08;100209.06;4980947;28;20210;-80
2023/10/14 11:06:31;;;;;;;7.10;1.50;;;;;;;15.80;55.00;100221.78;4968503;28;20219;-81
2023/10/14 11:09:00;;;;;;;6.00;1.93;;;;;;;15.78;54.40;100213.00;4972509;28;20227;-80
2023/10/14 11:11:31;;;;;;;4.03;1.33;;;;;;;15.78;55.02;100210.31;4971113;28;20218;-81
2023/10/14 11:14:00;;;;;;;4.43;1.20;;;;;;;15.78;55.31;100209.47;4973149;28;20280;-81
2023/10/14 11:16:28;;;;;;;8.67;1.33;;;;;;;15.81;55.81;100211.88;4980988;28;20414;-80
2023/10/14 11:18:55;;;;;;;4.77;1.10;;;;;;;15.77;54.35;100205.94;4979986;28;20304;-80
2023/10/14 11:21:22;;;;;;;3.77;1.07;;;;;;;15.75;54.60;100207.94;4989583;28;20210;-80
2023/10/14 11:23:52;;;;;;;8.20;1.73;;;;;;;15.78;56.38;100210.31;4976536;28;20217;-79
2023/10/14 11:26:19;;;;;;;7.87;1.90;;;;;;;15.82;55.90;100214.44;4979079;28;20251;-80
2023/10/14 11:28:46;;;;;;;8.47;1.43;;;;;;;15.84;54.30;100206.22;4993451;28;20267;-79
2023/10/14 11:31:13;;;;;;;5.13;1.37;;;;;;;15.79;54.04;100209.31;4983555;28;20206;-79
2023/10/14 11:33:39;;;;;;;6.20;1.20;;;;;;;15.79;53.92;100200.44;4975401;28;20208;-80
2023/10/14 11:36:06;;;;;;;6.87;1.53;;;;;;;15.80;53.41;100199.44;4973499;28;20621;-80
2023/10/14 11:38:36;;;;;;;4.93;1.10;;;;;;;15.81;54.49;100207.34;4970502;28;20207;-80
2023/10/14 11:41:04;;;;;;;5.53;1.73;;;;;;;15.84;53.62;100216.97;4967034;28;20655;-79